createdAt,value
2022-09-07T00:00:08.028Z,26.40
2022-09-07T00:02:36.153Z,26.40
2022-09-07T00:05:03.779Z,26.40
2022-09-07T00:07:31.816Z,26.40
2022-09-07T00:09:59.940Z,26.40
2022-09-07T00:12:27.481Z,26.30
2022-09-07T00:14:55.101Z,26.30
2022-09-07T00:17:23.096Z,26.30
2022-09-07T00:19:50.688Z,26.30
2022-09-07T00:22:18.165Z,26.30
2022-09-07T00:24:46.217Z,26.30
2022-09-07T00:27:13.751Z,26.30
2022-09-07T00:29:41.702Z,26.20
2022-09-07T00:32:09.739Z,26.20
2022-09-07T00:34:37.419Z,26.20
2022-09-07T00:37:04.978Z,26.20
2022-09-07T00:39:34.159Z,26.20
2022-09-07T00:42:01.784Z,26.20
2022-09-07T00:44:44.784Z,26.20
2022-09-07T00:47:15.514Z,26.20
2022-09-07T00:49:44.211Z,26.20
2022-09-07T00:52:12.811Z,26.10
2022-09-07T00:54:42.992Z,26.10
2022-09-07T00:57:11.134Z,26.20
2022-09-07T00:59:41.930Z,26.10
2022-09-07T01:02:09.954Z,26.10
2022-09-07T01:04:37.823Z,26.10
2022-09-07T01:07:06.182Z,26.10
2022-09-07T01:09:33.810Z,26.10
2022-09-07T01:12:01.742Z,26.10
2022-09-07T01:14:44.357Z,26.00
2022-09-07T01:17:11.921Z,26.00
2022-09-07T01:19:56.166Z,26.00
2022-09-07T01:22:32.739Z,26.00
2022-09-07T01:25:04.856Z,26.00
2022-09-07T01:27:32.328Z,26.00
2022-09-07T01:30:05.868Z,26.00
2022-09-07T01:32:42.493Z,26.00
2022-09-07T01:35:12.478Z,25.90
2022-09-07T01:37:40.053Z,25.90
2022-09-07T01:40:10.759Z,25.90
2022-09-07T01:42:47.449Z,25.90
2022-09-07T01:45:16.488Z,25.90
2022-09-07T01:47:46.670Z,25.90
2022-09-07T01:50:20.749Z,25.90
2022-09-07T01:52:52.277Z,25.90
2022-09-07T01:55:24.816Z,25.80
2022-09-07T01:58:01.467Z,25.80
2022-09-07T02:00:30.066Z,25.80
2022-09-07T02:03:00.994Z,25.80
2022-09-07T02:05:34.034Z,25.80
2022-09-07T02:08:06.868Z,25.80
2022-09-07T02:10:40.569Z,25.80
2022-09-07T02:13:10.856Z,25.80
2022-09-07T02:15:42.777Z,25.80
2022-09-07T02:18:14.070Z,25.80
2022-09-07T02:20:45.269Z,25.80
2022-09-07T02:23:19.460Z,25.70
2022-09-07T02:25:52.162Z,25.70
2022-09-07T02:28:26.639Z,25.70
2022-09-07T02:30:54.313Z,25.70
2022-09-07T02:33:22.439Z,25.70
2022-09-07T02:35:50.336Z,25.70
2022-09-07T02:38:18.263Z,25.70
2022-09-07T02:40:52.974Z,25.60
2022-09-07T02:43:21.162Z,25.60
2022-09-07T02:45:49.072Z,25.60
2022-09-07T02:48:22.754Z,25.60
2022-09-07T02:51:03.215Z,25.60
2022-09-07T02:53:37.062Z,25.60
2022-09-07T02:56:06.586Z,25.60
2022-09-07T02:58:45.986Z,25.60
2022-09-07T03:01:25.754Z,25.60
2022-09-07T03:03:56.333Z,25.60
2022-09-07T03:06:26.691Z,25.50
2022-09-07T03:08:56.281Z,25.50
2022-09-07T03:11:24.682Z,25.50
2022-09-07T03:13:52.233Z,25.50
2022-09-07T03:16:19.817Z,25.50
2022-09-07T03:18:47.847Z,25.50
2022-09-07T03:21:15.556Z,25.50
2022-09-07T03:23:43.099Z,25.50
2022-09-07T03:26:21.808Z,25.50
2022-09-07T03:28:49.387Z,25.40
2022-09-07T03:31:17.344Z,25.40
2022-09-07T03:33:45.129Z,25.40
2022-09-07T03:36:12.786Z,25.40
2022-09-07T03:38:40.690Z,25.40
2022-09-07T03:41:08.608Z,25.40
2022-09-07T03:43:36.223Z,25.40
2022-09-07T03:46:05.629Z,25.40
2022-09-07T03:48:34.432Z,25.40
2022-09-07T03:51:03.599Z,25.30
2022-09-07T03:53:32.450Z,25.30
2022-09-07T03:56:10.947Z,25.30
2022-09-07T03:58:39.012Z,25.40
2022-09-07T04:01:08.459Z,25.30
2022-09-07T04:03:36.833Z,25.30
2022-09-07T04:06:04.885Z,25.30
2022-09-07T04:08:34.367Z,25.30
2022-09-07T04:11:03.270Z,25.30
2022-09-07T04:13:31.233Z,25.20
2022-09-07T04:15:58.798Z,25.20
2022-09-07T04:18:26.920Z,25.20
2022-09-07T04:20:58.496Z,25.20
2022-09-07T04:23:26.589Z,25.20
2022-09-07T04:25:54.195Z,25.20
2022-09-07T04:28:21.771Z,25.20
2022-09-07T04:30:49.831Z,25.20
2022-09-07T04:33:17.497Z,25.20
2022-09-07T04:35:45.097Z,25.20
2022-09-07T04:38:14.004Z,25.20
2022-09-07T04:40:42.160Z,25.20
2022-09-07T04:43:13.264Z,25.10
2022-09-07T04:45:41.514Z,25.10
2022-09-07T04:48:09.156Z,25.10
2022-09-07T04:50:36.734Z,25.10
2022-09-07T04:53:05.092Z,25.10
2022-09-07T04:55:32.669Z,25.10
2022-09-07T04:58:00.273Z,25.10
2022-09-07T05:00:28.543Z,25.10
2022-09-07T05:02:56.247Z,25.10
2022-09-07T05:05:23.756Z,25.10
2022-09-07T05:07:51.771Z,25.10
2022-09-07T05:10:19.327Z,25.10
2022-09-07T05:12:47.399Z,25.10
2022-09-07T05:15:15.482Z,25.10
2022-09-07T05:17:43.028Z,25.10
2022-09-07T05:20:10.669Z,25.10
2022-09-07T05:22:41.391Z,25.10
2022-09-07T05:25:09.862Z,25.00
2022-09-07T05:27:37.809Z,25.00
2022-09-07T05:30:06.251Z,25.00
2022-09-07T05:32:34.235Z,25.00
2022-09-07T05:35:02.125Z,25.00
2022-09-07T05:37:29.839Z,25.00
2022-09-07T05:39:57.533Z,25.00
2022-09-07T05:42:25.682Z,25.00
2022-09-07T05:44:53.519Z,25.00
2022-09-07T05:47:21.123Z,25.00
2022-09-07T05:49:51.036Z,24.90
2022-09-07T05:52:20.794Z,24.90
2022-09-07T05:54:48.518Z,24.90
2022-09-07T05:57:16.457Z,24.90
2022-09-07T05:59:44.079Z,24.90
2022-09-07T06:02:14.860Z,24.90
2022-09-07T06:04:43.155Z,24.90
2022-09-07T06:07:27.699Z,24.80
2022-09-07T06:12:48.447Z,24.80
2022-09-07T06:15:18.019Z,24.80
2022-09-07T06:17:45.632Z,24.90
2022-09-07T06:20:13.162Z,24.80
2022-09-07T06:22:41.098Z,24.80
2022-09-07T06:25:08.913Z,24.80
2022-09-07T06:27:36.592Z,24.80
2022-09-07T06:30:04.785Z,24.80
2022-09-07T06:32:47.594Z,24.80
2022-09-07T06:35:16.041Z,24.80
2022-09-07T06:37:44.167Z,24.80
2022-09-07T06:40:12.015Z,24.80
2022-09-07T06:42:40.301Z,24.80
2022-09-07T06:45:11.618Z,24.80
2022-09-07T06:47:40.148Z,24.80
2022-09-07T06:50:08.083Z,24.80
2022-09-07T06:55:24.780Z,24.80
2022-09-07T06:57:53.505Z,24.80
2022-09-07T07:00:21.085Z,24.80
2022-09-07T07:02:48.979Z,24.80
2022-09-07T07:05:16.715Z,24.80
2022-09-07T07:07:44.427Z,24.80
2022-09-07T07:10:12.378Z,24.80
2022-09-07T07:15:06.726Z,24.80
2022-09-07T07:17:34.611Z,24.80
2022-09-07T07:20:02.356Z,24.80
2022-09-07T07:22:46.267Z,24.80
2022-09-07T07:25:15.641Z,24.80
2022-09-07T07:27:43.346Z,24.90
2022-09-07T07:30:11.093Z,24.90
2022-09-07T07:32:39.985Z,25.00
2022-09-07T07:35:07.867Z,25.10
2022-09-07T07:37:37.003Z,25.10
2022-09-07T07:42:41.827Z,25.10
2022-09-07T07:47:58.450Z,25.20
2022-09-07T07:50:34.323Z,25.20
2022-09-07T07:55:50.599Z,25.10
2022-09-07T07:58:18.506Z,25.10
2022-09-07T08:00:55.175Z,25.10
2022-09-07T08:03:24.059Z,25.10
2022-09-07T08:05:52.232Z,25.20
2022-09-07T08:08:20.080Z,25.20
2022-09-07T08:10:48.600Z,25.20
2022-09-07T08:13:16.847Z,25.30
2022-09-07T08:15:47.256Z,25.40
2022-09-07T08:18:16.590Z,25.40
2022-09-07T08:20:44.554Z,25.40
2022-09-07T08:23:12.138Z,25.40
2022-09-07T08:25:48.828Z,25.40
2022-09-07T08:28:16.515Z,25.40
2022-09-07T08:30:44.464Z,25.40
2022-09-07T08:33:12.168Z,25.50
2022-09-07T08:35:39.811Z,25.50
2022-09-07T08:38:07.706Z,25.60
2022-09-07T08:40:38.619Z,25.60
2022-09-07T08:43:18.596Z,25.60
2022-09-07T08:45:52.049Z,25.70
2022-09-07T08:48:22.321Z,25.70
2022-09-07T08:50:50.311Z,25.70
2022-09-07T08:53:19.811Z,25.70
2022-09-07T08:55:49.932Z,25.70
2022-09-07T08:58:47.610Z,25.70
2022-09-07T09:04:19.018Z,25.80
2022-09-07T09:06:52.912Z,25.80
2022-09-07T09:09:20.948Z,25.80
2022-09-07T09:12:07.059Z,25.80
2022-09-07T09:14:45.084Z,25.80
2022-09-07T09:17:33.891Z,25.80
2022-09-07T09:20:01.876Z,25.90
2022-09-07T09:22:29.809Z,25.90
2022-09-07T09:25:03.676Z,25.90
2022-09-07T09:27:31.528Z,26.00
2022-09-07T09:29:59.130Z,26.00
2022-09-07T09:32:35.727Z,26.00
2022-09-07T09:35:05.301Z,26.00
2022-09-07T09:37:40.230Z,26.10
2022-09-07T09:40:18.767Z,26.10
2022-09-07T09:42:47.363Z,26.10
2022-09-07T09:45:22.498Z,26.20
2022-09-07T09:47:54.901Z,26.20
2022-09-07T09:53:27.974Z,26.20
2022-09-07T09:55:56.156Z,26.30
2022-09-07T09:59:55.964Z,26.30
2022-09-07T10:04:27.835Z,26.30
2022-09-07T10:07:02.812Z,26.40
2022-09-07T10:09:38.098Z,26.40
2022-09-07T10:12:07.371Z,26.40
2022-09-07T10:14:46.212Z,26.40
2022-09-07T10:17:25.735Z,26.40
2022-09-07T10:19:54.481Z,26.40
2022-09-07T10:22:22.414Z,26.50
2022-09-07T10:24:50.975Z,26.50
2022-09-07T10:27:20.003Z,26.50
2022-09-07T10:29:47.735Z,26.50
2022-09-07T10:32:20.077Z,26.40
2022-09-07T10:35:06.908Z,26.50
2022-09-07T10:37:52.999Z,26.50
2022-09-07T10:40:24.266Z,26.50
2022-09-07T10:45:49.052Z,26.60
2022-09-07T10:48:19.674Z,26.60
2022-09-07T10:50:50.420Z,26.50
2022-09-07T10:53:40.233Z,26.50
2022-09-07T10:56:21.988Z,26.50
2022-09-07T10:59:02.954Z,26.50
2022-09-07T11:01:52.834Z,26.50
2022-09-07T11:04:26.651Z,26.60
2022-09-07T11:07:00.321Z,26.60
2022-09-07T11:09:27.855Z,26.60
2022-09-07T11:12:03.827Z,26.60
2022-09-07T11:14:36.883Z,26.60
2022-09-07T11:17:09.202Z,26.60
2022-09-07T11:19:55.187Z,26.60
2022-09-07T11:22:28.232Z,26.60
2022-09-07T11:25:34.321Z,26.60
2022-09-07T11:28:14.806Z,26.70
2022-09-07T11:30:48.027Z,26.60
2022-09-07T11:33:21.291Z,26.70
2022-09-07T11:35:59.876Z,26.70
2022-09-07T11:38:46.439Z,26.70
2022-09-07T11:41:14.242Z,26.70
2022-09-07T11:43:44.097Z,26.80
2022-09-07T11:46:16.652Z,26.80
2022-09-07T11:48:55.814Z,26.70
2022-09-07T11:51:40.628Z,26.80
2022-09-07T11:54:27.434Z,26.80
2022-09-07T11:57:03.390Z,26.80
2022-09-07T11:59:37.639Z,26.80
2022-09-07T12:02:05.459Z,26.80
2022-09-07T12:04:40.199Z,26.80
2022-09-07T12:07:19.883Z,26.80
2022-09-07T12:09:56.962Z,26.80
2022-09-07T12:12:27.929Z,26.80
2022-09-07T12:14:55.778Z,26.90
2022-09-07T12:17:38.575Z,26.70
2022-09-07T12:20:09.306Z,26.60
2022-09-07T12:22:38.122Z,26.60
2022-09-07T12:25:09.938Z,26.50
2022-09-07T12:27:38.492Z,26.50
2022-09-07T12:30:07.069Z,26.40
2022-09-07T12:33:01.976Z,26.40
2022-09-07T12:35:32.389Z,26.40
2022-09-07T12:38:24.088Z,26.40
2022-09-07T12:40:54.705Z,26.30
2022-09-07T12:43:22.236Z,26.30
2022-09-07T12:45:51.820Z,26.30
2022-09-07T12:48:19.799Z,26.30
2022-09-07T12:50:59.584Z,26.30
2022-09-07T12:53:30.289Z,26.30
2022-09-07T12:56:17.338Z,26.30
2022-09-07T12:59:13.914Z,26.30
2022-09-07T13:01:45.728Z,26.20
2022-09-07T13:04:37.809Z,26.30
2022-09-07T13:07:18.562Z,26.20
2022-09-07T13:09:59.572Z,26.30
2022-09-07T13:15:43.815Z,26.20
2022-09-07T13:18:29.977Z,26.20
2022-09-07T13:21:07.056Z,26.20
2022-09-07T13:23:38.067Z,26.20
2022-09-07T13:26:08.182Z,26.20
2022-09-07T13:28:48.261Z,26.20
2022-09-07T13:31:34.847Z,26.20
2022-09-07T13:34:22.497Z,26.20
2022-09-07T13:36:50.776Z,26.20
2022-09-07T13:39:20.854Z,26.20
2022-09-07T13:41:53.419Z,26.20
2022-09-07T13:44:26.260Z,26.20
2022-09-07T13:47:06.766Z,26.20
2022-09-07T13:49:37.803Z,26.10
2022-09-07T13:52:27.734Z,26.10
2022-09-07T13:54:56.529Z,26.20
2022-09-07T13:57:33.404Z,26.10
2022-09-07T14:00:01.488Z,26.20
2022-09-07T14:02:36.104Z,26.20
2022-09-07T14:05:05.293Z,26.20
2022-09-07T14:07:32.900Z,26.20
2022-09-07T14:10:14.674Z,26.20
2022-09-07T14:12:50.070Z,26.20
2022-09-07T14:15:28.377Z,26.10
2022-09-07T14:18:03.767Z,26.20
2022-09-07T14:20:32.787Z,26.20
2022-09-07T14:23:00.709Z,26.10
2022-09-07T14:25:28.348Z,26.20
2022-09-07T14:27:58.089Z,26.20
2022-09-07T14:30:30.139Z,26.20
2022-09-07T14:33:18.023Z,26.10
2022-09-07T14:35:46.470Z,26.20
2022-09-07T14:38:14.566Z,26.10
2022-09-07T14:40:42.471Z,26.20
2022-09-07T14:43:45.692Z,26.20
2022-09-07T14:46:26.738Z,26.20
2022-09-07T14:48:56.091Z,26.20
2022-09-07T14:51:35.283Z,26.20
2022-09-07T14:54:07.820Z,26.20
2022-09-07T14:56:39.582Z,26.20
2022-09-07T14:59:28.614Z,26.20
2022-09-07T15:02:15.032Z,26.20
2022-09-07T15:04:43.318Z,26.20
2022-09-07T15:07:29.825Z,26.20
2022-09-07T15:10:12.275Z,26.20
2022-09-07T15:12:41.892Z,26.30
2022-09-07T15:15:11.264Z,26.20
2022-09-07T15:17:45.974Z,26.20
2022-09-07T15:20:32.592Z,26.30
2022-09-07T15:23:00.207Z,26.30
2022-09-07T15:25:29.034Z,26.30
2022-09-07T15:27:56.647Z,26.30
2022-09-07T15:30:25.400Z,26.30
2022-09-07T15:32:54.340Z,26.30
2022-09-07T15:35:22.005Z,26.30
2022-09-07T15:38:05.878Z,26.30
2022-09-07T15:41:10.557Z,26.30
2022-09-07T15:43:33.089Z,26.30
2022-09-07T15:46:03.477Z,26.30
2022-09-07T15:48:31.249Z,26.30
2022-09-07T15:51:03.688Z,26.30
2022-09-07T15:56:20.927Z,26.30
2022-09-07T15:58:52.476Z,26.30
2022-09-07T16:04:11.594Z,26.30
2022-09-07T16:06:39.510Z,26.30
2022-09-07T16:09:07.317Z,26.30
2022-09-07T16:11:35.627Z,26.30
2022-09-07T16:14:03.844Z,26.30
2022-09-07T16:19:21.230Z,26.30
2022-09-07T16:21:48.905Z,26.30
2022-09-07T16:24:17.492Z,26.30
2022-09-07T16:26:45.507Z,26.30
2022-09-07T16:29:13.113Z,26.30
2022-09-07T16:32:43.904Z,26.30
2022-09-07T16:34:28.651Z,26.30
2022-09-07T16:36:56.206Z,26.30
2022-09-07T16:39:23.908Z,26.30
2022-09-07T16:41:52.097Z,26.30
2022-09-07T16:44:19.751Z,26.30
2022-09-07T16:46:47.445Z,26.30
2022-09-07T16:49:16.784Z,26.30
2022-09-07T16:51:45.924Z,26.30
2022-09-07T16:54:14.623Z,26.40
2022-09-07T16:56:42.753Z,26.40
2022-09-07T16:59:14.012Z,26.40
2022-09-07T17:01:42.331Z,26.50
2022-09-07T17:04:11.393Z,26.60
2022-09-07T17:06:40.194Z,26.60
2022-09-07T17:09:08.178Z,26.60
2022-09-07T17:11:36.474Z,26.60
2022-09-07T17:14:08.056Z,26.60
2022-09-07T17:16:37.675Z,26.60
2022-09-07T17:21:55.462Z,26.70
2022-09-07T17:24:25.028Z,26.70
2022-09-07T17:26:52.594Z,26.80
2022-09-07T17:29:20.771Z,26.80
2022-09-07T17:34:36.484Z,26.80
2022-09-07T17:37:04.134Z,26.80
2022-09-07T17:39:31.748Z,26.90
2022-09-07T17:41:59.844Z,26.90
2022-09-07T17:44:31.977Z,26.90
2022-09-07T17:47:03.469Z,26.90
2022-09-07T17:49:31.140Z,26.90
2022-09-07T17:52:00.132Z,26.90
2022-09-07T17:54:28.302Z,26.90
2022-09-07T17:56:55.839Z,27.00
2022-09-07T18:02:14.048Z,27.00
2022-09-07T18:04:42.920Z,27.00
2022-09-07T18:07:11.050Z,27.00
2022-09-07T18:09:38.711Z,27.00
2022-09-07T18:12:06.827Z,27.10
2022-09-07T18:14:34.519Z,27.10
2022-09-07T18:17:02.135Z,27.10
2022-09-07T18:19:30.140Z,27.10
2022-09-07T18:21:57.684Z,27.10
2022-09-07T18:24:25.468Z,27.10
2022-09-07T18:26:54.220Z,27.10
2022-09-07T18:29:29.426Z,27.10
2022-09-07T18:31:59.114Z,27.10
2022-09-07T18:34:28.720Z,27.20
2022-09-07T18:36:57.433Z,27.10
2022-09-07T18:39:25.835Z,27.20
2022-09-07T18:41:56.560Z,27.20
2022-09-07T18:47:21.799Z,27.20
2022-09-07T18:49:51.886Z,27.20
2022-09-07T18:55:10.262Z,27.20
2022-09-07T18:57:38.367Z,27.20
2022-09-07T19:00:07.917Z,27.30
2022-09-07T19:02:36.158Z,27.30
2022-09-07T19:07:52.175Z,27.30
2022-09-07T19:10:20.150Z,27.30
2022-09-07T19:12:47.883Z,27.30
2022-09-07T19:15:15.611Z,27.30
2022-09-07T19:17:43.568Z,27.30
2022-09-07T19:20:11.183Z,27.30
2022-09-07T19:22:39.278Z,27.30
2022-09-07T19:25:07.319Z,27.30
2022-09-07T19:27:35.241Z,27.30
2022-09-07T19:30:03.724Z,27.30
2022-09-07T19:32:31.615Z,27.30
2022-09-07T19:34:59.116Z,27.30
2022-09-07T19:37:29.056Z,27.30
2022-09-07T19:39:57.054Z,27.30
2022-09-07T19:42:25.079Z,27.30
2022-09-07T19:44:52.861Z,27.30
2022-09-07T19:47:21.413Z,27.30
2022-09-07T19:49:48.888Z,27.30
2022-09-07T19:52:16.838Z,27.30
2022-09-07T19:54:44.768Z,27.30
2022-09-07T19:57:12.366Z,27.30
2022-09-07T19:59:39.998Z,27.30
2022-09-07T20:02:09.308Z,27.30
2022-09-07T20:04:37.195Z,27.30
2022-09-07T20:07:05.455Z,27.30
2022-09-07T20:09:33.380Z,27.40
2022-09-07T20:12:02.888Z,27.30
2022-09-07T20:14:30.680Z,27.40
2022-09-07T20:16:58.204Z,27.40
2022-09-07T20:19:26.344Z,27.40
2022-09-07T20:21:56.721Z,27.30
2022-09-07T20:24:24.983Z,27.30
2022-09-07T20:26:53.134Z,27.30
2022-09-07T20:29:27.633Z,27.40
2022-09-07T20:31:57.314Z,27.40
2022-09-07T20:34:25.186Z,27.40
2022-09-07T20:36:53.046Z,27.40
2022-09-07T20:39:21.109Z,27.40
2022-09-07T20:41:49.204Z,27.40
2022-09-07T20:44:16.883Z,27.40
2022-09-07T20:46:44.870Z,27.40
2022-09-07T20:49:12.498Z,27.40
2022-09-07T20:51:40.165Z,27.40
2022-09-07T20:54:08.170Z,27.30
2022-09-07T20:56:36.200Z,27.40
2022-09-07T20:59:03.988Z,27.40
2022-09-07T21:01:32.429Z,27.40
2022-09-07T21:04:00.946Z,27.40
2022-09-07T21:06:29.528Z,27.40
2022-09-07T21:08:57.764Z,27.30
2022-09-07T21:11:27.020Z,27.20
2022-09-07T21:14:01.981Z,27.20
2022-09-07T21:16:30.225Z,27.20
2022-09-07T21:18:59.443Z,27.20
2022-09-07T21:21:27.939Z,27.10
2022-09-07T21:23:57.353Z,27.00
2022-09-07T21:26:25.501Z,27.00
2022-09-07T21:29:15.233Z,26.90
2022-09-07T21:31:43.218Z,26.90
2022-09-07T21:34:10.768Z,26.80
2022-09-07T21:36:38.418Z,26.80
2022-09-07T21:39:08.799Z,26.80
2022-09-07T21:41:39.058Z,26.70
2022-09-07T21:44:07.287Z,26.60
2022-09-07T21:46:34.971Z,26.60
2022-09-07T21:49:03.183Z,26.60
2022-09-07T21:51:32.077Z,26.60
2022-09-07T21:54:00.445Z,26.50
2022-09-07T21:56:31.958Z,26.40
2022-09-07T21:59:01.466Z,26.40
2022-09-07T22:01:30.003Z,26.40
2022-09-07T22:04:00.147Z,26.30
2022-09-07T22:06:28.304Z,26.30
2022-09-07T22:08:56.240Z,26.20
2022-09-07T22:11:25.811Z,26.20
2022-09-07T22:13:57.463Z,26.10
2022-09-07T22:16:25.727Z,26.00
2022-09-07T22:18:53.428Z,26.10
2022-09-07T22:21:25.672Z,26.00
2022-09-07T22:23:55.543Z,26.00
2022-09-07T22:26:24.663Z,26.00
2022-09-07T22:28:52.368Z,25.90
2022-09-07T22:31:22.166Z,25.90
2022-09-07T22:33:50.513Z,25.90
2022-09-07T22:36:19.492Z,25.90
2022-09-07T22:38:48.500Z,25.80
2022-09-07T22:41:17.387Z,25.80
2022-09-07T22:43:45.830Z,25.80
2022-09-07T22:46:14.489Z,25.70
2022-09-07T22:48:42.081Z,25.60
2022-09-07T22:51:10.881Z,25.60
2022-09-07T22:53:39.948Z,25.60
2022-09-07T22:56:12.158Z,25.70
2022-09-07T22:58:40.212Z,25.70
2022-09-07T23:01:07.791Z,25.70
2022-09-07T23:03:35.577Z,25.60
2022-09-07T23:06:03.800Z,25.60
2022-09-07T23:08:31.492Z,25.60
2022-09-07T23:11:04.784Z,25.60
2022-09-07T23:13:33.206Z,25.60
2022-09-07T23:16:06.374Z,25.60
2022-09-07T23:18:34.883Z,25.60
2022-09-07T23:21:02.649Z,25.60
2022-09-07T23:23:30.467Z,25.70
2022-09-07T23:26:00.768Z,25.60
2022-09-07T23:28:28.461Z,25.70
2022-09-07T23:30:56.328Z,25.60
2022-09-07T23:33:24.515Z,25.70
2022-09-07T23:35:55.555Z,25.60
2022-09-07T23:38:23.674Z,25.60
2022-09-07T23:40:51.797Z,25.60
2022-09-07T23:43:19.468Z,25.60
2022-09-07T23:45:46.990Z,25.70
2022-09-07T23:48:14.963Z,25.70
2022-09-07T23:50:45.657Z,25.70
2022-09-07T23:53:13.331Z,25.60
2022-09-07T23:55:41.890Z,25.70
2022-09-07T23:58:09.700Z,25.60
